createdAt,value
2022-10-19T00:02:15.950Z,88.95
2022-10-19T00:04:42.469Z,88.74
2022-10-19T00:07:08.860Z,89.14
2022-10-19T00:09:35.253Z,88.69
2022-10-19T00:12:01.629Z,88.84
2022-10-19T00:14:28.020Z,88.91
2022-10-19T00:16:54.545Z,88.87
2022-10-19T00:19:25.463Z,88.40
2022-10-19T00:21:51.897Z,88.60
2022-10-19T00:24:18.328Z,88.14
2022-10-19T00:26:44.716Z,87.98
2022-10-19T00:29:12.360Z,88.30
2022-10-19T00:31:38.937Z,88.30
2022-10-19T00:34:05.348Z,88.31
2022-10-19T00:36:33.556Z,88.36
2022-10-19T00:39:00.191Z,88.26
2022-10-19T00:41:29.124Z,87.93
2022-10-19T00:44:06.628Z,88.16
2022-10-19T00:46:35.280Z,87.93
2022-10-19T00:49:09.988Z,87.97
2022-10-19T00:51:39.573Z,88.07
2022-10-19T00:54:05.993Z,88.19
2022-10-19T00:56:32.636Z,88.13
2022-10-19T00:58:59.053Z,87.66
2022-10-19T01:01:25.510Z,87.79
2022-10-19T01:03:51.909Z,87.77
2022-10-19T01:06:18.315Z,88.03
2022-10-19T01:08:44.686Z,87.89
2022-10-19T01:11:35.814Z,88.26
2022-10-19T01:14:21.116Z,88.18
2022-10-19T01:16:50.389Z,87.98
2022-10-19T01:19:39.732Z,88.04
2022-10-19T01:22:32.602Z,87.90
2022-10-19T01:25:21.356Z,88.25
2022-10-19T01:28:02.969Z,88.04
2022-10-19T01:30:36.062Z,88.27
2022-10-19T01:33:17.150Z,88.09
2022-10-19T01:35:55.561Z,88.06
2022-10-19T01:38:35.106Z,87.94
2022-10-19T01:41:04.393Z,87.59
2022-10-19T01:43:30.778Z,87.61
2022-10-19T01:46:09.574Z,87.68
2022-10-19T01:48:36.113Z,87.38
2022-10-19T01:51:05.447Z,86.88
2022-10-19T01:53:34.901Z,86.91
2022-10-19T01:56:01.297Z,86.58
2022-10-19T01:58:28.852Z,86.30
2022-10-19T02:00:56.159Z,86.37
2022-10-19T02:03:23.236Z,86.08
2022-10-19T02:05:49.684Z,85.44
2022-10-19T02:08:19.299Z,85.66
2022-10-19T02:10:45.732Z,85.27
2022-10-19T02:13:13.229Z,85.31
2022-10-19T02:15:40.933Z,84.58
2022-10-19T02:18:07.296Z,84.35
2022-10-19T02:20:34.830Z,84.00
2022-10-19T02:23:05.597Z,84.19
2022-10-19T02:25:32.557Z,83.88
2022-10-19T02:27:59.049Z,83.93
2022-10-19T02:30:25.472Z,83.36
2022-10-19T02:32:51.837Z,83.55
2022-10-19T02:35:18.211Z,83.23
2022-10-19T02:37:44.604Z,82.27
2022-10-19T02:40:11.139Z,80.79
2022-10-19T02:42:41.517Z,80.74
2022-10-19T02:45:29.220Z,80.39
2022-10-19T02:48:00.799Z,79.74
2022-10-19T02:50:27.835Z,79.58
2022-10-19T02:52:54.261Z,79.13
2022-10-19T02:55:20.626Z,78.75
2022-10-19T02:57:47.025Z,78.77
2022-10-19T03:00:13.430Z,78.81
2022-10-19T03:02:39.816Z,78.74
2022-10-19T03:05:06.562Z,77.66
2022-10-19T03:07:33.260Z,77.37
2022-10-19T03:09:59.814Z,77.21
2022-10-19T03:12:26.226Z,77.14
2022-10-19T03:14:52.607Z,77.72
2022-10-19T03:17:19.196Z,78.17
2022-10-19T03:19:45.694Z,77.67
2022-10-19T03:22:13.435Z,76.77
2022-10-19T03:24:39.809Z,76.91
2022-10-19T03:27:06.201Z,76.39
2022-10-19T03:29:32.589Z,76.67
2022-10-19T03:31:58.983Z,76.63
2022-10-19T03:34:25.363Z,76.83
2022-10-19T03:36:51.730Z,77.34
2022-10-19T03:39:18.233Z,77.19
2022-10-19T03:41:44.696Z,77.56
2022-10-19T03:44:11.276Z,77.77
2022-10-19T03:46:37.800Z,77.73
2022-10-19T03:49:04.269Z,77.71
2022-10-19T03:51:31.336Z,77.87
2022-10-19T03:54:02.994Z,77.81
2022-10-19T03:56:29.934Z,77.95
2022-10-19T03:58:57.019Z,77.62
2022-10-19T04:01:30.267Z,77.86
2022-10-19T04:04:02.164Z,78.24
2022-10-19T04:06:30.214Z,78.20
2022-10-19T04:08:56.620Z,78.34
2022-10-19T04:11:24.755Z,78.60
2022-10-19T04:13:52.133Z,79.16
2022-10-19T04:16:19.128Z,78.96
2022-10-19T04:18:45.706Z,79.68
2022-10-19T04:21:28.204Z,79.29
2022-10-19T04:24:05.489Z,79.55
2022-10-19T04:26:32.230Z,78.87
2022-10-19T04:28:58.975Z,79.50
2022-10-19T04:31:25.704Z,79.86
2022-10-19T04:33:52.241Z,79.60
2022-10-19T04:36:18.660Z,79.67
2022-10-19T04:38:45.106Z,79.65
2022-10-19T04:41:13.263Z,79.92
2022-10-19T04:43:39.713Z,80.15
2022-10-19T04:46:09.804Z,80.49
2022-10-19T04:48:36.662Z,80.10
2022-10-19T04:51:03.222Z,80.58
2022-10-19T04:53:29.746Z,79.89
2022-10-19T04:55:56.184Z,80.09
2022-10-19T04:58:22.654Z,80.04
2022-10-19T05:00:49.130Z,80.49
2022-10-19T05:03:15.532Z,80.12
2022-10-19T05:05:41.932Z,80.44
2022-10-19T05:08:09.062Z,80.76
2022-10-19T05:10:36.343Z,80.51
2022-10-19T05:13:02.762Z,80.66
2022-10-19T05:15:29.515Z,80.83
2022-10-19T05:17:56.065Z,80.95
2022-10-19T05:20:22.732Z,80.94
2022-10-19T05:22:49.151Z,81.12
2022-10-19T05:25:15.547Z,81.31
2022-10-19T05:27:41.987Z,81.40
2022-10-19T05:30:08.829Z,81.11
2022-10-19T05:32:35.431Z,81.24
2022-10-19T05:35:01.941Z,81.18
2022-10-19T05:37:28.337Z,81.24
2022-10-19T05:39:54.895Z,81.01
2022-10-19T05:42:21.290Z,81.26
2022-10-19T05:44:47.717Z,81.02
2022-10-19T05:47:14.149Z,81.53
2022-10-19T05:49:40.583Z,81.25
2022-10-19T05:52:06.955Z,81.08
2022-10-19T05:54:33.420Z,80.96
2022-10-19T05:56:59.824Z,81.04
2022-10-19T05:59:26.245Z,80.36
2022-10-19T06:01:52.691Z,80.68
2022-10-19T06:04:19.170Z,80.29
2022-10-19T06:06:47.021Z,80.20
2022-10-19T06:09:13.591Z,80.24
2022-10-19T06:11:41.221Z,80.16
2022-10-19T06:14:12.267Z,79.74
2022-10-19T06:16:38.959Z,79.69
2022-10-19T06:19:05.558Z,79.78
2022-10-19T06:21:32.452Z,79.81
2022-10-19T06:24:00.356Z,79.84
2022-10-19T06:26:26.924Z,79.85
2022-10-19T06:28:55.292Z,79.86
2022-10-19T06:31:21.724Z,80.09
2022-10-19T06:33:49.474Z,80.07
2022-10-19T06:36:20.982Z,80.40
2022-10-19T06:38:50.337Z,80.11
2022-10-19T06:41:16.879Z,80.15
2022-10-19T06:43:43.251Z,80.06
2022-10-19T06:46:16.576Z,80.16
2022-10-19T06:48:42.970Z,80.60
2022-10-19T06:51:09.420Z,80.33
2022-10-19T06:53:35.941Z,80.37
2022-10-19T06:56:03.783Z,80.24
2022-10-19T06:58:30.194Z,80.24
2022-10-19T07:00:57.524Z,80.33
2022-10-19T07:03:25.048Z,80.33
2022-10-19T07:05:58.585Z,80.05
2022-10-19T07:08:25.708Z,79.97
2022-10-19T07:10:57.303Z,80.16
2022-10-19T07:13:23.998Z,80.09
2022-10-19T07:15:55.906Z,79.44
2022-10-19T07:18:22.309Z,79.75
2022-10-19T07:20:58.476Z,79.80
2022-10-19T07:23:25.531Z,79.54
2022-10-19T07:25:55.114Z,79.89
2022-10-19T07:28:21.644Z,79.59
2022-10-19T07:30:48.098Z,79.43
2022-10-19T07:33:14.530Z,79.46
2022-10-19T07:35:40.993Z,79.25
2022-10-19T07:38:07.487Z,79.57
2022-10-19T07:40:34.193Z,79.75
2022-10-19T07:43:00.587Z,79.07
2022-10-19T07:45:26.994Z,78.66
2022-10-19T07:47:53.399Z,79.26
2022-10-19T07:50:19.781Z,78.51
2022-10-19T07:52:46.419Z,78.84
2022-10-19T07:55:12.800Z,78.69
2022-10-19T07:57:40.752Z,78.73
2022-10-19T08:00:09.159Z,78.55
2022-10-19T08:02:53.563Z,79.29
2022-10-19T08:05:21.989Z,79.08
2022-10-19T08:07:48.453Z,79.18
2022-10-19T08:10:14.892Z,78.98
2022-10-19T08:12:41.332Z,79.28
2022-10-19T08:15:08.011Z,77.98
2022-10-19T08:17:37.311Z,77.75
2022-10-19T08:20:04.836Z,77.34
2022-10-19T08:22:31.273Z,76.51
2022-10-19T08:24:57.799Z,77.08
2022-10-19T08:27:24.200Z,76.91
2022-10-19T08:29:50.775Z,77.46
2022-10-19T08:32:17.931Z,77.07
2022-10-19T08:34:44.612Z,76.97
2022-10-19T08:37:20.225Z,76.49
2022-10-19T08:39:57.377Z,76.86
2022-10-19T08:42:28.340Z,76.73
2022-10-19T08:45:31.258Z,75.91
2022-10-19T08:48:03.626Z,75.84
2022-10-19T08:50:37.740Z,75.87
2022-10-19T08:53:10.787Z,75.19
2022-10-19T08:55:59.692Z,75.43
2022-10-19T08:58:29.998Z,75.77
2022-10-19T09:01:04.190Z,76.07
2022-10-19T09:04:00.000Z,75.29
2022-10-19T09:06:30.262Z,75.21
2022-10-19T09:08:56.667Z,75.06
2022-10-19T09:11:24.751Z,74.71
2022-10-19T09:14:04.686Z,75.70
2022-10-19T09:16:31.957Z,75.78
2022-10-19T09:18:58.343Z,73.83
2022-10-19T09:21:34.447Z,73.35
2022-10-19T09:24:24.264Z,73.54
2022-10-19T09:26:58.107Z,72.50
2022-10-19T09:29:37.196Z,72.96
2022-10-19T09:32:05.360Z,73.45
2022-10-19T09:34:36.593Z,73.26
2022-10-19T09:37:03.134Z,72.93
2022-10-19T09:39:30.108Z,73.31
2022-10-19T09:42:39.050Z,73.27
2022-10-19T09:45:30.360Z,72.84
2022-10-19T09:48:02.402Z,72.04
2022-10-19T09:50:35.193Z,71.99
2022-10-19T09:53:04.691Z,72.52
2022-10-19T09:55:43.259Z,71.67
2022-10-19T09:58:17.813Z,71.98
2022-10-19T10:00:48.397Z,72.30
2022-10-19T10:03:37.860Z,72.87
2022-10-19T10:06:15.447Z,73.26
2022-10-19T10:08:46.868Z,72.46
2022-10-19T10:11:15.305Z,72.60
2022-10-19T10:13:43.425Z,72.67
2022-10-19T10:16:15.266Z,71.76
2022-10-19T10:21:47.958Z,70.74
2022-10-19T10:24:14.301Z,69.95
2022-10-19T10:26:42.125Z,69.96
2022-10-19T10:29:23.796Z,69.98
2022-10-19T10:31:53.742Z,69.03
2022-10-19T10:34:50.132Z,69.24
2022-10-19T10:37:37.408Z,69.45
2022-10-19T10:40:05.027Z,68.78
2022-10-19T10:42:40.149Z,69.34
2022-10-19T10:45:17.248Z,69.81
2022-10-19T10:47:43.607Z,70.54
2022-10-19T10:50:16.904Z,70.54
2022-10-19T10:52:55.342Z,69.59
2022-10-19T10:55:21.730Z,68.72
2022-10-19T10:57:53.245Z,69.21
2022-10-19T11:00:21.165Z,69.22
2022-10-19T11:03:13.895Z,69.46
2022-10-19T11:06:07.704Z,70.25
2022-10-19T11:09:09.307Z,69.98
2022-10-19T11:11:38.836Z,69.61
2022-10-19T11:14:28.945Z,70.08
2022-10-19T11:16:56.659Z,69.99
2022-10-19T11:19:33.889Z,70.69
2022-10-19T11:22:06.874Z,70.30
2022-10-19T11:24:47.923Z,69.07
2022-10-19T11:27:43.280Z,68.16
2022-10-19T11:30:09.624Z,67.28
2022-10-19T11:33:06.128Z,66.86
2022-10-19T11:35:44.647Z,66.88
2022-10-19T11:38:37.375Z,66.83
2022-10-19T11:41:18.647Z,66.59
2022-10-19T11:44:20.450Z,65.85
2022-10-19T11:46:59.876Z,64.79
2022-10-19T11:49:51.539Z,64.81
2022-10-19T11:52:24.446Z,64.55
2022-10-19T11:55:28.539Z,64.54
2022-10-19T11:58:04.097Z,64.69
2022-10-19T12:00:39.495Z,64.76
2022-10-19T12:03:38.416Z,64.28
2022-10-19T12:06:07.801Z,63.84
2022-10-19T12:08:51.285Z,63.34
2022-10-19T12:11:26.193Z,62.74
2022-10-19T12:13:55.873Z,61.82
2022-10-19T12:16:22.119Z,62.98
2022-10-19T12:18:50.112Z,62.64
2022-10-19T12:21:29.658Z,63.37
2022-10-19T12:23:59.172Z,63.69
2022-10-19T12:26:25.964Z,62.51
2022-10-19T12:28:53.998Z,61.95
2022-10-19T12:31:20.362Z,61.13
2022-10-19T12:34:24.347Z,59.97
2022-10-19T12:37:01.070Z,59.15
2022-10-19T12:39:49.861Z,59.30
2022-10-19T12:42:24.644Z,58.64
2022-10-19T12:45:09.971Z,58.24
2022-10-19T12:47:36.618Z,57.60
2022-10-19T12:50:03.625Z,59.15
2022-10-19T12:52:42.121Z,58.00
2022-10-19T12:55:17.474Z,54.23
2022-10-19T12:57:44.599Z,54.62
2022-10-19T13:00:25.247Z,56.42
2022-10-19T13:03:01.898Z,56.26
2022-10-19T13:05:29.419Z,56.35
2022-10-19T13:07:55.797Z,56.83
2022-10-19T13:10:23.590Z,56.51
2022-10-19T13:12:50.026Z,57.30
2022-10-19T13:15:34.998Z,57.34
2022-10-19T13:18:14.632Z,57.24
2022-10-19T13:20:48.601Z,57.24
2022-10-19T13:23:14.839Z,56.77
2022-10-19T13:25:41.831Z,55.49
2022-10-19T13:28:08.076Z,56.76
2022-10-19T13:30:37.147Z,57.55
2022-10-19T13:33:22.535Z,58.27
2022-10-19T13:35:48.933Z,57.09
2022-10-19T13:38:20.558Z,53.32
2022-10-19T13:40:49.845Z,44.14
2022-10-19T13:43:35.315Z,36.14
2022-10-19T13:46:04.562Z,33.45
2022-10-19T13:48:56.457Z,36.74
2022-10-19T13:51:41.413Z,43.84
2022-10-19T13:54:22.044Z,47.83
2022-10-19T13:56:54.419Z,51.14
2022-10-19T13:59:40.953Z,53.06
2022-10-19T14:02:47.013Z,55.23
2022-10-19T14:08:17.368Z,55.05
2022-10-19T14:11:00.260Z,55.24
2022-10-19T14:13:27.944Z,55.48
2022-10-19T14:15:55.796Z,55.23
2022-10-19T14:18:32.928Z,55.63
2022-10-19T14:21:00.871Z,56.22
2022-10-19T14:23:31.969Z,56.34
2022-10-19T14:26:05.576Z,57.20
2022-10-19T14:28:32.076Z,57.52
2022-10-19T14:31:04.090Z,58.02
2022-10-19T14:33:32.652Z,58.20
2022-10-19T14:35:59.413Z,57.92
2022-10-19T14:38:32.872Z,58.99
2022-10-19T14:40:59.287Z,59.14
2022-10-19T14:43:27.284Z,60.13
2022-10-19T14:46:06.062Z,60.30
2022-10-19T14:48:35.645Z,60.52
2022-10-19T14:51:02.161Z,58.70
2022-10-19T14:53:48.236Z,57.13
2022-10-19T14:56:19.793Z,57.79
2022-10-19T14:58:56.554Z,59.68
2022-10-19T15:01:22.975Z,60.19
2022-10-19T15:03:49.392Z,61.27
2022-10-19T15:06:21.732Z,61.12
2022-10-19T15:08:59.434Z,61.43
2022-10-19T15:11:35.899Z,62.22
2022-10-19T15:14:23.313Z,62.42
2022-10-19T15:16:53.492Z,64.08
2022-10-19T15:19:27.798Z,64.04
2022-10-19T15:22:13.131Z,65.18
2022-10-19T15:24:40.066Z,64.83
2022-10-19T15:27:32.541Z,64.24
2022-10-19T15:30:02.827Z,64.90
2022-10-19T15:32:34.819Z,65.51
2022-10-19T15:35:12.173Z,65.83
2022-10-19T15:37:41.543Z,66.07
2022-10-19T15:40:12.482Z,65.96
2022-10-19T15:42:42.219Z,65.63
2022-10-19T15:45:47.175Z,66.03
2022-10-19T15:48:24.026Z,66.28
2022-10-19T15:50:50.769Z,66.32
2022-10-19T15:53:17.306Z,65.82
2022-10-19T15:55:43.802Z,65.79
2022-10-19T15:58:10.749Z,65.85
2022-10-19T16:00:37.405Z,65.37
2022-10-19T16:03:04.932Z,65.09
2022-10-19T16:05:31.321Z,65.69
2022-10-19T16:07:57.769Z,65.04
2022-10-19T16:10:25.225Z,64.82
2022-10-19T16:12:51.852Z,65.12
2022-10-19T16:15:20.161Z,65.07
2022-10-19T16:17:46.666Z,65.92
2022-10-19T16:20:13.120Z,65.35
2022-10-19T16:22:39.502Z,65.56
2022-10-19T16:25:06.277Z,65.52
2022-10-19T16:27:33.053Z,65.98
2022-10-19T16:29:59.761Z,66.63
2022-10-19T16:32:26.163Z,66.73
2022-10-19T16:34:52.559Z,67.16
2022-10-19T16:37:19.097Z,67.25
2022-10-19T16:39:47.849Z,67.20
2022-10-19T16:42:14.332Z,67.42
2022-10-19T16:44:40.754Z,67.88
2022-10-19T16:47:09.449Z,67.82
2022-10-19T16:49:35.877Z,68.08
2022-10-19T16:52:02.265Z,68.33
2022-10-19T16:54:28.710Z,68.98
2022-10-19T16:56:55.173Z,68.96
2022-10-19T16:59:21.722Z,69.08
2022-10-19T17:01:48.179Z,69.47
2022-10-19T17:04:15.290Z,69.62
2022-10-19T17:06:41.732Z,69.54
2022-10-19T17:09:40.884Z,69.72
2022-10-19T17:11:54.636Z,69.75
2022-10-19T17:14:21.031Z,69.97
2022-10-19T17:16:47.519Z,70.00
2022-10-19T17:19:13.896Z,69.10
2022-10-19T17:21:40.332Z,69.85
2022-10-19T17:24:07.645Z,69.90
2022-10-19T17:26:40.873Z,69.85
2022-10-19T17:29:07.413Z,69.66
2022-10-19T17:31:33.864Z,70.03
2022-10-19T17:34:00.321Z,69.82
2022-10-19T17:36:28.775Z,69.90
2022-10-19T17:38:55.936Z,68.99
2022-10-19T17:41:22.577Z,69.53
2022-10-19T17:43:49.320Z,69.18
2022-10-19T17:46:16.680Z,69.48
2022-10-19T17:48:43.361Z,69.11
2022-10-19T17:51:14.476Z,69.03
2022-10-19T17:53:40.884Z,68.69
2022-10-19T17:56:07.661Z,68.69
2022-10-19T17:58:36.410Z,68.20
2022-10-19T18:01:07.700Z,69.00
2022-10-19T18:03:34.506Z,68.77
2022-10-19T18:06:09.888Z,69.20
2022-10-19T18:08:38.798Z,69.51
2022-10-19T18:11:18.672Z,69.93
2022-10-19T18:13:45.063Z,70.54
2022-10-19T18:16:16.463Z,70.65
2022-10-19T18:18:43.782Z,70.24
2022-10-19T18:21:11.892Z,70.99
2022-10-19T18:23:38.471Z,70.76
2022-10-19T18:26:06.360Z,71.24
2022-10-19T18:28:32.794Z,71.25
2022-10-19T18:31:08.418Z,71.01
2022-10-19T18:33:34.880Z,71.49
2022-10-19T18:36:01.280Z,71.14
2022-10-19T18:38:27.727Z,71.13
2022-10-19T18:40:54.144Z,71.79
2022-10-19T18:43:20.535Z,72.63
2022-10-19T18:45:53.893Z,72.69
2022-10-19T18:48:20.733Z,72.29
2022-10-19T18:50:47.160Z,72.47
2022-10-19T18:53:13.580Z,72.60
2022-10-19T18:55:40.869Z,73.43
2022-10-19T18:58:07.564Z,72.75
2022-10-19T19:00:34.104Z,72.59
2022-10-19T19:03:00.484Z,72.44
2022-10-19T19:07:53.656Z,72.91
2022-10-19T19:10:20.154Z,72.30
2022-10-19T19:12:49.129Z,72.28
2022-10-19T19:15:17.779Z,72.80
2022-10-19T19:17:46.261Z,71.74
2022-10-19T19:20:12.640Z,72.63
2022-10-19T19:22:39.178Z,71.87
2022-10-19T19:25:05.958Z,72.16
2022-10-19T19:27:32.511Z,72.60
2022-10-19T19:29:59.012Z,72.26
2022-10-19T19:32:25.418Z,72.14
2022-10-19T19:34:54.728Z,72.53
2022-10-19T19:37:21.428Z,72.41
2022-10-19T19:39:47.806Z,73.01
2022-10-19T19:42:14.177Z,72.61
2022-10-19T19:44:40.689Z,73.08
2022-10-19T19:47:07.080Z,73.09
2022-10-19T19:49:33.513Z,73.38
2022-10-19T19:51:59.996Z,73.07
2022-10-19T19:54:26.412Z,73.96
2022-10-19T19:56:53.300Z,73.42
2022-10-19T19:59:19.987Z,73.20
2022-10-19T20:01:46.515Z,73.70
2022-10-19T20:04:12.985Z,74.40
2022-10-19T20:06:39.912Z,74.02
2022-10-19T20:09:07.292Z,74.39
2022-10-19T20:11:36.077Z,74.82
2022-10-19T20:14:04.865Z,74.22
2022-10-19T20:16:31.286Z,74.73
2022-10-19T20:19:11.345Z,74.69
2022-10-19T20:21:37.887Z,74.91
2022-10-19T20:24:04.602Z,73.95
2022-10-19T20:26:31.081Z,74.61
2022-10-19T20:28:57.802Z,74.96
2022-10-19T20:31:24.630Z,74.57
2022-10-19T20:33:51.154Z,74.20
2022-10-19T20:36:25.057Z,74.30
2022-10-19T20:38:52.978Z,75.19
2022-10-19T20:41:20.198Z,74.31
2022-10-19T20:43:46.776Z,74.44
2022-10-19T20:46:15.248Z,75.58
2022-10-19T20:48:41.696Z,75.64
2022-10-19T20:51:22.453Z,75.18
2022-10-19T20:53:51.921Z,74.85
2022-10-19T20:56:20.034Z,75.60
2022-10-19T20:58:46.514Z,75.02
2022-10-19T21:01:17.919Z,75.35
2022-10-19T21:03:48.331Z,75.79
2022-10-19T21:06:15.119Z,75.19
2022-10-19T21:08:41.631Z,75.76
2022-10-19T21:11:15.600Z,76.17
2022-10-19T21:13:42.332Z,76.11
2022-10-19T21:16:13.573Z,75.44
2022-10-19T21:18:41.147Z,75.42
2022-10-19T21:21:16.554Z,75.80
2022-10-19T21:23:44.430Z,76.33
2022-10-19T21:26:11.041Z,76.20
2022-10-19T21:28:37.649Z,75.96
2022-10-19T21:31:05.093Z,76.36
2022-10-19T21:33:31.684Z,76.72
2022-10-19T21:36:01.850Z,76.63
2022-10-19T21:38:29.068Z,76.55
2022-10-19T21:40:59.242Z,76.80
2022-10-19T21:43:25.699Z,77.39
2022-10-19T21:45:52.084Z,77.93
2022-10-19T21:48:18.488Z,77.98
2022-10-19T21:50:44.977Z,77.57
2022-10-19T21:53:11.370Z,78.54
2022-10-19T21:55:39.012Z,78.44
2022-10-19T21:58:05.409Z,78.88
2022-10-19T22:00:31.795Z,78.57
2022-10-19T22:02:58.190Z,78.54
2022-10-19T22:05:24.596Z,78.90
2022-10-19T22:07:51.003Z,78.64
2022-10-19T22:10:18.000Z,79.36
2022-10-19T22:12:44.393Z,78.94
2022-10-19T22:15:11.033Z,79.84
2022-10-19T22:17:37.419Z,79.77
2022-10-19T22:20:04.153Z,80.22
2022-10-19T22:22:30.669Z,79.61
2022-10-19T22:24:57.056Z,80.40
2022-10-19T22:27:23.435Z,79.94
2022-10-19T22:29:51.352Z,80.76
2022-10-19T22:32:18.253Z,80.71
2022-10-19T22:34:44.648Z,80.07
2022-10-19T22:37:11.037Z,80.87
2022-10-19T22:39:37.443Z,81.16
2022-10-19T22:42:04.010Z,81.24
2022-10-19T22:44:30.636Z,80.53
2022-10-19T22:46:57.448Z,80.50
2022-10-19T22:49:23.867Z,81.49
2022-10-19T22:51:50.353Z,80.72
2022-10-19T22:54:16.768Z,80.57
2022-10-19T22:56:43.200Z,81.25
2022-10-19T22:59:09.643Z,81.16
2022-10-19T23:01:36.204Z,80.71
2022-10-19T23:04:02.706Z,80.55
2022-10-19T23:06:29.086Z,80.76
2022-10-19T23:08:55.493Z,80.81
2022-10-19T23:11:22.139Z,80.92
2022-10-19T23:13:48.534Z,81.42
2022-10-19T23:16:14.956Z,81.37
2022-10-19T23:18:41.411Z,80.83
2022-10-19T23:21:10.503Z,81.57
2022-10-19T23:23:36.903Z,80.68
2022-10-19T23:26:07.180Z,80.75
2022-10-19T23:28:34.733Z,80.77
2022-10-19T23:31:09.904Z,81.26
2022-10-19T23:33:36.266Z,80.87
2022-10-19T23:36:07.354Z,80.77
2022-10-19T23:38:33.956Z,81.36
2022-10-19T23:41:00.331Z,81.16
2022-10-19T23:43:26.893Z,81.72
2022-10-19T23:45:53.280Z,81.54
2022-10-19T23:48:19.667Z,82.20
2022-10-19T23:50:46.032Z,82.14
2022-10-19T23:53:12.490Z,81.88
2022-10-19T23:55:38.864Z,81.23
2022-10-19T23:58:05.251Z,81.85
